CheckWX is a tool to help pilots better visualize weather data.  It is not intended as a substitute for an official pre-flight weather briefing.

01:14:43 UTC

KSFF TAF
Felts Field Airport
Spokane, Washington, USA
KSFF 040520Z 0406/0506 VRB03KT P6SM FEW250 FM041400 22005KT P6SM BKN200 FM042000 VRB06KT P6SM BKN200

Jul-4@
06:00 UTC

Jul-4 @ 06:00 UTC

Jul-4@
14:00 UTC

Jul-4 @ 14:00 UTC

TAF KSFF 040520Z 0406/0506 VRB03KT P6SM FEW250

Expired

Wind
  • Variable at 3 KTS
Cloud Levels
  • Few at 25,000' AGL

Jul-4@
14:00 UTC

Jul-4 @ 14:00 UTC

Jul-4@
20:00 UTC

Jul-4 @ 20:00 UTC

FM041400 22005KT P6SM BKN200

Expired

Wind
  • 220° at 5 KTS
Cloud Levels
  • Broken at 20,000' AGL

Jul-4@
20:00 UTC

Jul-4 @ 20:00 UTC

Jul-5@
06:00 UTC

Jul-5 @ 06:00 UTC

FM042000 VRB06KT P6SM BKN200

From

From Standard forecast or significant change

Wind
  • Variable at 6 KTS
Cloud Levels
  • Broken at 20,000' AGL